sensor_id;sensor_type;location;lat;lon;timestamp;P1;durP1;ratioP1;P2;durP2;ratioP2
12603;SDS011;6367;52.508;13.284;2022-08-03T00:00:37;4.23;;;3.53;;
12603;SDS011;6367;52.508;13.284;2022-08-03T00:03:03;5.50;;;3.63;;
12603;SDS011;6367;52.508;13.284;2022-08-03T00:05:29;4.90;;;3.97;;
12603;SDS011;6367;52.508;13.284;2022-08-03T00:07:57;5.33;;;3.67;;
12603;SDS011;6367;52.508;13.284;2022-08-03T00:10:23;4.53;;;4.13;;
12603;SDS011;6367;52.508;13.284;2022-08-03T00:12:49;4.40;;;3.80;;
12603;SDS011;6367;52.508;13.284;2022-08-03T00:15:14;4.47;;;3.53;;
12603;SDS011;6367;52.508;13.284;2022-08-03T00:17:40;4.40;;;4.00;;
12603;SDS011;6367;52.508;13.284;2022-08-03T00:20:06;6.07;;;3.80;;
12603;SDS011;6367;52.508;13.284;2022-08-03T00:22:33;5.03;;;3.50;;
12603;SDS011;6367;52.508;13.284;2022-08-03T00:24:59;5.47;;;4.23;;
12603;SDS011;6367;52.508;13.284;2022-08-03T00:27:25;8.10;;;4.10;;
12603;SDS011;6367;52.508;13.284;2022-08-03T00:29:50;5.00;;;3.87;;
12603;SDS011;6367;52.508;13.284;2022-08-03T00:32:16;4.80;;;4.40;;
12603;SDS011;6367;52.508;13.284;2022-08-03T00:34:41;5.43;;;3.97;;
12603;SDS011;6367;52.508;13.284;2022-08-03T00:37:07;3.87;;;3.60;;
12603;SDS011;6367;52.508;13.284;2022-08-03T00:39:32;4.67;;;3.50;;
12603;SDS011;6367;52.508;13.284;2022-08-03T00:42:04;4.43;;;3.60;;
12603;SDS011;6367;52.508;13.284;2022-08-03T00:44:30;4.27;;;3.83;;
12603;SDS011;6367;52.508;13.284;2022-08-03T00:46:56;3.53;;;3.20;;
12603;SDS011;6367;52.508;13.284;2022-08-03T00:49:22;4.67;;;3.83;;
12603;SDS011;6367;52.508;13.284;2022-08-03T00:51:48;4.57;;;3.93;;
12603;SDS011;6367;52.508;13.284;2022-08-03T00:54:14;4.40;;;3.40;;
12603;SDS011;6367;52.508;13.284;2022-08-03T00:56:40;6.03;;;3.77;;
12603;SDS011;6367;52.508;13.284;2022-08-03T00:59:08;4.90;;;3.27;;
12603;SDS011;6367;52.508;13.284;2022-08-03T01:01:34;5.53;;;3.30;;
12603;SDS011;6367;52.508;13.284;2022-08-03T01:04:00;3.70;;;3.40;;
12603;SDS011;6367;52.508;13.284;2022-08-03T01:06:40;4.17;;;3.50;;
12603;SDS011;6367;52.508;13.284;2022-08-03T01:09:22;3.70;;;3.20;;
12603;SDS011;6367;52.508;13.284;2022-08-03T01:12:12;3.70;;;3.50;;
12603;SDS011;6367;52.508;13.284;2022-08-03T01:15:24;4.97;;;3.70;;
12603;SDS011;6367;52.508;13.284;2022-08-03T01:18:21;3.70;;;3.40;;
12603;SDS011;6367;52.508;13.284;2022-08-03T01:21:21;3.70;;;3.40;;
12603;SDS011;6367;52.508;13.284;2022-08-03T01:26:55;3.33;;;3.13;;
12603;SDS011;6367;52.508;13.284;2022-08-03T01:29:33;4.10;;;3.70;;
12603;SDS011;6367;52.508;13.284;2022-08-03T01:32:07;5.50;;;4.07;;
12603;SDS011;6367;52.508;13.284;2022-08-03T01:35:05;5.37;;;3.30;;
12603;SDS011;6367;52.508;13.284;2022-08-03T01:37:42;3.80;;;3.40;;
12603;SDS011;6367;52.508;13.284;2022-08-03T01:40:14;3.60;;;3.30;;
12603;SDS011;6367;52.508;13.284;2022-08-03T01:42:41;3.30;;;3.10;;
12603;SDS011;6367;52.508;13.284;2022-08-03T01:45:09;3.70;;;3.40;;
12603;SDS011;6367;52.508;13.284;2022-08-03T01:47:38;4.40;;;4.00;;
12603;SDS011;6367;52.508;13.284;2022-08-03T01:50:05;4.87;;;3.40;;
12603;SDS011;6367;52.508;13.284;2022-08-03T01:52:33;4.13;;;3.77;;
12603;SDS011;6367;52.508;13.284;2022-08-03T01:55:01;3.70;;;3.40;;
12603;SDS011;6367;52.508;13.284;2022-08-03T01:57:28;4.67;;;4.27;;
12603;SDS011;6367;52.508;13.284;2022-08-03T01:59:55;5.03;;;4.10;;
12603;SDS011;6367;52.508;13.284;2022-08-03T02:02:23;3.83;;;3.50;;
12603;SDS011;6367;52.508;13.284;2022-08-03T02:04:51;4.10;;;3.23;;
12603;SDS011;6367;52.508;13.284;2022-08-03T02:07:19;3.80;;;3.47;;
12603;SDS011;6367;52.508;13.284;2022-08-03T02:09:45;4.00;;;3.60;;
12603;SDS011;6367;52.508;13.284;2022-08-03T02:12:14;4.63;;;3.53;;
12603;SDS011;6367;52.508;13.284;2022-08-03T02:14:42;3.53;;;3.30;;
12603;SDS011;6367;52.508;13.284;2022-08-03T02:17:09;3.63;;;3.23;;
12603;SDS011;6367;52.508;13.284;2022-08-03T02:19:38;3.80;;;3.50;;
12603;SDS011;6367;52.508;13.284;2022-08-03T02:22:06;3.77;;;3.40;;
12603;SDS011;6367;52.508;13.284;2022-08-03T02:24:34;3.30;;;3.10;;
12603;SDS011;6367;52.508;13.284;2022-08-03T02:27:00;3.20;;;3.00;;
12603;SDS011;6367;52.508;13.284;2022-08-03T02:29:51;3.87;;;3.57;;
12603;SDS011;6367;52.508;13.284;2022-08-03T02:32:23;3.77;;;3.47;;
12603;SDS011;6367;52.508;13.284;2022-08-03T02:34:53;4.33;;;3.93;;
12603;SDS011;6367;52.508;13.284;2022-08-03T02:37:22;3.80;;;3.50;;
12603;SDS011;6367;52.508;13.284;2022-08-03T02:39:52;3.30;;;3.10;;
12603;SDS011;6367;52.508;13.284;2022-08-03T02:42:25;3.80;;;3.60;;
12603;SDS011;6367;52.508;13.284;2022-08-03T02:44:54;3.80;;;3.37;;
12603;SDS011;6367;52.508;13.284;2022-08-03T02:47:21;4.83;;;3.80;;
12603;SDS011;6367;52.508;13.284;2022-08-03T02:49:51;4.13;;;3.30;;
12603;SDS011;6367;52.508;13.284;2022-08-03T02:52:20;3.70;;;3.40;;
12603;SDS011;6367;52.508;13.284;2022-08-03T02:54:48;5.63;;;3.93;;
12603;SDS011;6367;52.508;13.284;2022-08-03T02:57:17;3.53;;;3.23;;
12603;SDS011;6367;52.508;13.284;2022-08-03T02:59:44;3.63;;;3.20;;
12603;SDS011;6367;52.508;13.284;2022-08-03T03:02:11;3.80;;;3.50;;
12603;SDS011;6367;52.508;13.284;2022-08-03T03:04:37;5.03;;;3.93;;
12603;SDS011;6367;52.508;13.284;2022-08-03T03:07:04;3.83;;;3.43;;
12603;SDS011;6367;52.508;13.284;2022-08-03T03:09:30;3.90;;;3.27;;
12603;SDS011;6367;52.508;13.284;2022-08-03T03:11:57;4.33;;;3.87;;
12603;SDS011;6367;52.508;13.284;2022-08-03T03:14:24;6.10;;;3.97;;
12603;SDS011;6367;52.508;13.284;2022-08-03T03:16:50;4.40;;;4.00;;
12603;SDS011;6367;52.508;13.284;2022-08-03T03:19:16;4.83;;;4.37;;
12603;SDS011;6367;52.508;13.284;2022-08-03T03:21:43;5.50;;;4.40;;
12603;SDS011;6367;52.508;13.284;2022-08-03T03:24:10;4.37;;;3.97;;
12603;SDS011;6367;52.508;13.284;2022-08-03T03:26:36;4.37;;;3.90;;
12603;SDS011;6367;52.508;13.284;2022-08-03T03:29:02;5.10;;;4.13;;
12603;SDS011;6367;52.508;13.284;2022-08-03T03:31:28;5.20;;;4.80;;
12603;SDS011;6367;52.508;13.284;2022-08-03T03:33:56;4.63;;;4.23;;
12603;SDS011;6367;52.508;13.284;2022-08-03T03:36:22;4.50;;;4.10;;
12603;SDS011;6367;52.508;13.284;2022-08-03T03:38:48;5.17;;;4.77;;
12603;SDS011;6367;52.508;13.284;2022-08-03T03:41:13;4.70;;;4.23;;
12603;SDS011;6367;52.508;13.284;2022-08-03T03:43:39;5.40;;;5.00;;
12603;SDS011;6367;52.508;13.284;2022-08-03T03:46:05;4.70;;;4.40;;
12603;SDS011;6367;52.508;13.284;2022-08-03T03:48:31;4.60;;;4.20;;
12603;SDS011;6367;52.508;13.284;2022-08-03T03:50:57;4.80;;;4.40;;
12603;SDS011;6367;52.508;13.284;2022-08-03T03:53:23;5.57;;;5.10;;
12603;SDS011;6367;52.508;13.284;2022-08-03T03:55:50;5.83;;;5.33;;
12603;SDS011;6367;52.508;13.284;2022-08-03T03:58:16;5.67;;;5.17;;
12603;SDS011;6367;52.508;13.284;2022-08-03T04:00:42;5.70;;;5.30;;
12603;SDS011;6367;52.508;13.284;2022-08-03T04:03:09;5.57;;;5.17;;
12603;SDS011;6367;52.508;13.284;2022-08-03T04:05:36;5.17;;;4.67;;
12603;SDS011;6367;52.508;13.284;2022-08-03T04:08:20;5.10;;;4.77;;
12603;SDS011;6367;52.508;13.284;2022-08-03T04:13:58;4.77;;;4.47;;
12603;SDS011;6367;52.508;13.284;2022-08-03T04:16:29;4.90;;;4.50;;
12603;SDS011;6367;52.508;13.284;2022-08-03T04:19:01;4.80;;;4.40;;
12603;SDS011;6367;52.508;13.284;2022-08-03T04:21:30;4.73;;;4.33;;
12603;SDS011;6367;52.508;13.284;2022-08-03T04:23:58;4.83;;;4.43;;
12603;SDS011;6367;52.508;13.284;2022-08-03T04:26:27;6.43;;;4.83;;
12603;SDS011;6367;52.508;13.284;2022-08-03T04:28:57;4.70;;;4.30;;
12603;SDS011;6367;52.508;13.284;2022-08-03T04:31:25;4.70;;;4.20;;
12603;SDS011;6367;52.508;13.284;2022-08-03T04:33:52;4.57;;;3.90;;
12603;SDS011;6367;52.508;13.284;2022-08-03T04:36:22;4.13;;;3.83;;
12603;SDS011;6367;52.508;13.284;2022-08-03T04:41:25;4.20;;;3.80;;
12603;SDS011;6367;52.508;13.284;2022-08-03T04:43:52;5.17;;;3.90;;
12603;SDS011;6367;52.508;13.284;2022-08-03T04:46:21;5.57;;;3.73;;
12603;SDS011;6367;52.508;13.284;2022-08-03T04:48:49;4.17;;;3.87;;
12603;SDS011;6367;52.508;13.284;2022-08-03T04:51:16;4.17;;;3.47;;
12603;SDS011;6367;52.508;13.284;2022-08-03T04:53:42;3.50;;;3.20;;
12603;SDS011;6367;52.508;13.284;2022-08-03T04:56:08;3.93;;;3.63;;
12603;SDS011;6367;52.508;13.284;2022-08-03T04:58:34;5.57;;;4.27;;
12603;SDS011;6367;52.508;13.284;2022-08-03T05:00:59;4.40;;;3.80;;
12603;SDS011;6367;52.508;13.284;2022-08-03T05:03:25;5.20;;;4.10;;
12603;SDS011;6367;52.508;13.284;2022-08-03T05:05:53;4.70;;;4.30;;
12603;SDS011;6367;52.508;13.284;2022-08-03T05:08:20;3.70;;;3.50;;
12603;SDS011;6367;52.508;13.284;2022-08-03T05:10:45;4.40;;;3.97;;
12603;SDS011;6367;52.508;13.284;2022-08-03T05:13:11;4.37;;;3.97;;
12603;SDS011;6367;52.508;13.284;2022-08-03T05:15:38;3.83;;;3.53;;
12603;SDS011;6367;52.508;13.284;2022-08-03T05:18:04;3.67;;;3.20;;
12603;SDS011;6367;52.508;13.284;2022-08-03T05:20:30;3.70;;;3.40;;
12603;SDS011;6367;52.508;13.284;2022-08-03T05:22:56;4.13;;;3.83;;
12603;SDS011;6367;52.508;13.284;2022-08-03T05:25:24;3.57;;;3.27;;
12603;SDS011;6367;52.508;13.284;2022-08-03T05:27:50;3.80;;;3.50;;
12603;SDS011;6367;52.508;13.284;2022-08-03T05:30:16;3.57;;;3.27;;
12603;SDS011;6367;52.508;13.284;2022-08-03T05:32:42;4.20;;;3.80;;
12603;SDS011;6367;52.508;13.284;2022-08-03T05:35:07;3.07;;;2.87;;
12603;SDS011;6367;52.508;13.284;2022-08-03T05:37:33;4.93;;;3.73;;
12603;SDS011;6367;52.508;13.284;2022-08-03T05:39:58;4.70;;;3.60;;
12603;SDS011;6367;52.508;13.284;2022-08-03T05:42:24;3.37;;;3.07;;
12603;SDS011;6367;52.508;13.284;2022-08-03T05:44:50;6.27;;;3.70;;
12603;SDS011;6367;52.508;13.284;2022-08-03T05:47:15;4.87;;;3.30;;
12603;SDS011;6367;52.508;13.284;2022-08-03T05:49:41;5.33;;;3.20;;
12603;SDS011;6367;52.508;13.284;2022-08-03T05:52:07;3.40;;;3.10;;
12603;SDS011;6367;52.508;13.284;2022-08-03T05:54:32;3.20;;;2.97;;
12603;SDS011;6367;52.508;13.284;2022-08-03T05:56:58;4.90;;;3.03;;
12603;SDS011;6367;52.508;13.284;2022-08-03T05:59:23;3.07;;;2.70;;
12603;SDS011;6367;52.508;13.284;2022-08-03T06:01:52;3.03;;;2.60;;
12603;SDS011;6367;52.508;13.284;2022-08-03T06:04:17;3.23;;;2.97;;
12603;SDS011;6367;52.508;13.284;2022-08-03T06:06:43;2.90;;;2.63;;
12603;SDS011;6367;52.508;13.284;2022-08-03T06:09:09;2.80;;;2.60;;
12603;SDS011;6367;52.508;13.284;2022-08-03T06:11:35;2.93;;;2.60;;
12603;SDS011;6367;52.508;13.284;2022-08-03T06:14:01;2.60;;;2.10;;
12603;SDS011;6367;52.508;13.284;2022-08-03T06:16:27;2.10;;;1.90;;
12603;SDS011;6367;52.508;13.284;2022-08-03T06:18:53;2.20;;;2.10;;
12603;SDS011;6367;52.508;13.284;2022-08-03T06:21:18;2.43;;;2.33;;
12603;SDS011;6367;52.508;13.284;2022-08-03T06:23:44;2.50;;;2.30;;
12603;SDS011;6367;52.508;13.284;2022-08-03T06:26:11;2.50;;;2.30;;
12603;SDS011;6367;52.508;13.284;2022-08-03T06:28:37;3.27;;;2.40;;
12603;SDS011;6367;52.508;13.284;2022-08-03T06:31:03;2.20;;;2.10;;
12603;SDS011;6367;52.508;13.284;2022-08-03T06:33:28;2.50;;;2.30;;
12603;SDS011;6367;52.508;13.284;2022-08-03T06:35:54;2.90;;;2.27;;
12603;SDS011;6367;52.508;13.284;2022-08-03T06:38:20;2.53;;;2.30;;
12603;SDS011;6367;52.508;13.284;2022-08-03T06:40:45;4.00;;;2.50;;
12603;SDS011;6367;52.508;13.284;2022-08-03T06:43:11;3.10;;;2.03;;
12603;SDS011;6367;52.508;13.284;2022-08-03T06:45:39;2.93;;;2.43;;
12603;SDS011;6367;52.508;13.284;2022-08-03T06:48:09;2.43;;;2.23;;
12603;SDS011;6367;52.508;13.284;2022-08-03T06:50:40;3.53;;;2.20;;
12603;SDS011;6367;52.508;13.284;2022-08-03T06:53:08;2.43;;;2.20;;
12603;SDS011;6367;52.508;13.284;2022-08-03T06:55:34;2.13;;;1.93;;
12603;SDS011;6367;52.508;13.284;2022-08-03T06:57:59;2.77;;;2.37;;
12603;SDS011;6367;52.508;13.284;2022-08-03T07:00:25;2.17;;;1.87;;
12603;SDS011;6367;52.508;13.284;2022-08-03T07:02:52;2.43;;;2.20;;
12603;SDS011;6367;52.508;13.284;2022-08-03T07:05:17;2.67;;;2.47;;
12603;SDS011;6367;52.508;13.284;2022-08-03T07:07:44;5.43;;;2.10;;
12603;SDS011;6367;52.508;13.284;2022-08-03T07:10:10;3.13;;;2.13;;
12603;SDS011;6367;52.508;13.284;2022-08-03T07:12:36;4.67;;;2.30;;
12603;SDS011;6367;52.508;13.284;2022-08-03T07:15:03;2.10;;;1.90;;
12603;SDS011;6367;52.508;13.284;2022-08-03T07:17:30;2.70;;;2.20;;
12603;SDS011;6367;52.508;13.284;2022-08-03T07:19:57;2.80;;;2.03;;
12603;SDS011;6367;52.508;13.284;2022-08-03T07:22:24;2.17;;;1.97;;
12603;SDS011;6367;52.508;13.284;2022-08-03T07:24:50;2.17;;;2.07;;
12603;SDS011;6367;52.508;13.284;2022-08-03T07:27:16;2.23;;;1.97;;
12603;SDS011;6367;52.508;13.284;2022-08-03T07:29:42;2.10;;;2.00;;
12603;SDS011;6367;52.508;13.284;2022-08-03T07:32:07;2.80;;;1.87;;
12603;SDS011;6367;52.508;13.284;2022-08-03T07:34:33;3.20;;;2.17;;
12603;SDS011;6367;52.508;13.284;2022-08-03T07:36:58;4.00;;;2.20;;
12603;SDS011;6367;52.508;13.284;2022-08-03T07:39:24;2.10;;;1.90;;
12603;SDS011;6367;52.508;13.284;2022-08-03T07:41:50;3.10;;;1.67;;
12603;SDS011;6367;52.508;13.284;2022-08-03T07:44:18;2.10;;;1.90;;
12603;SDS011;6367;52.508;13.284;2022-08-03T07:46:44;2.00;;;1.80;;
12603;SDS011;6367;52.508;13.284;2022-08-03T07:49:10;5.10;;;2.20;;
12603;SDS011;6367;52.508;13.284;2022-08-03T07:51:36;13.00;;;2.83;;
12603;SDS011;6367;52.508;13.284;2022-08-03T07:54:01;7.37;;;2.30;;
12603;SDS011;6367;52.508;13.284;2022-08-03T07:56:27;5.17;;;2.00;;
12603;SDS011;6367;52.508;13.284;2022-08-03T07:58:53;3.30;;;1.87;;
12603;SDS011;6367;52.508;13.284;2022-08-03T08:01:19;3.33;;;2.23;;
12603;SDS011;6367;52.508;13.284;2022-08-03T08:03:46;2.60;;;2.00;;
12603;SDS011;6367;52.508;13.284;2022-08-03T08:06:12;2.03;;;1.93;;
12603;SDS011;6367;52.508;13.284;2022-08-03T08:08:38;2.60;;;2.30;;
12603;SDS011;6367;52.508;13.284;2022-08-03T08:11:04;1.97;;;1.87;;
12603;SDS011;6367;52.508;13.284;2022-08-03T08:13:30;2.10;;;1.80;;
12603;SDS011;6367;52.508;13.284;2022-08-03T08:15:55;2.10;;;1.90;;
12603;SDS011;6367;52.508;13.284;2022-08-03T08:18:21;2.43;;;2.00;;
12603;SDS011;6367;52.508;13.284;2022-08-03T08:20:48;2.50;;;1.80;;
12603;SDS011;6367;52.508;13.284;2022-08-03T08:23:14;4.10;;;1.90;;
12603;SDS011;6367;52.508;13.284;2022-08-03T08:25:41;2.57;;;1.70;;
12603;SDS011;6367;52.508;13.284;2022-08-03T08:28:07;2.30;;;2.10;;
12603;SDS011;6367;52.508;13.284;2022-08-03T08:30:32;2.00;;;1.53;;
12603;SDS011;6367;52.508;13.284;2022-08-03T08:32:58;2.00;;;1.90;;
12603;SDS011;6367;52.508;13.284;2022-08-03T08:35:24;2.03;;;1.83;;
12603;SDS011;6367;52.508;13.284;2022-08-03T08:37:50;2.77;;;2.00;;
12603;SDS011;6367;52.508;13.284;2022-08-03T08:40:15;2.17;;;2.07;;
12603;SDS011;6367;52.508;13.284;2022-08-03T08:42:44;2.80;;;1.83;;
12603;SDS011;6367;52.508;13.284;2022-08-03T08:45:11;4.00;;;1.70;;
12603;SDS011;6367;52.508;13.284;2022-08-03T08:47:39;3.90;;;1.90;;
12603;SDS011;6367;52.508;13.284;2022-08-03T08:50:10;1.80;;;1.70;;
12603;SDS011;6367;52.508;13.284;2022-08-03T08:52:38;1.90;;;1.80;;
12603;SDS011;6367;52.508;13.284;2022-08-03T08:55:05;1.93;;;1.77;;
12603;SDS011;6367;52.508;13.284;2022-08-03T08:57:35;1.97;;;1.87;;
12603;SDS011;6367;52.508;13.284;2022-08-03T09:00:06;2.50;;;1.80;;
12603;SDS011;6367;52.508;13.284;2022-08-03T09:02:34;2.00;;;1.90;;
12603;SDS011;6367;52.508;13.284;2022-08-03T09:05:00;2.13;;;2.03;;
12603;SDS011;6367;52.508;13.284;2022-08-03T09:07:27;2.70;;;1.87;;
12603;SDS011;6367;52.508;13.284;2022-08-03T09:09:53;1.90;;;1.80;;
12603;SDS011;6367;52.508;13.284;2022-08-03T09:12:19;2.20;;;2.00;;
12603;SDS011;6367;52.508;13.284;2022-08-03T09:14:44;2.07;;;1.77;;
12603;SDS011;6367;52.508;13.284;2022-08-03T09:17:10;2.73;;;2.30;;
12603;SDS011;6367;52.508;13.284;2022-08-03T09:19:36;2.17;;;2.07;;
12603;SDS011;6367;52.508;13.284;2022-08-03T09:22:15;2.30;;;2.20;;
12603;SDS011;6367;52.508;13.284;2022-08-03T09:24:55;3.33;;;2.30;;
12603;SDS011;6367;52.508;13.284;2022-08-03T09:27:22;2.57;;;2.03;;
12603;SDS011;6367;52.508;13.284;2022-08-03T09:29:52;2.30;;;1.73;;
12603;SDS011;6367;52.508;13.284;2022-08-03T09:32:22;2.13;;;1.97;;
12603;SDS011;6367;52.508;13.284;2022-08-03T09:34:49;2.23;;;1.87;;
12603;SDS011;6367;52.508;13.284;2022-08-03T09:37:16;2.10;;;1.83;;
12603;SDS011;6367;52.508;13.284;2022-08-03T09:39:44;2.40;;;1.97;;
12603;SDS011;6367;52.508;13.284;2022-08-03T09:42:11;2.90;;;1.80;;
12603;SDS011;6367;52.508;13.284;2022-08-03T09:44:42;1.97;;;1.83;;
12603;SDS011;6367;52.508;13.284;2022-08-03T09:47:09;1.90;;;1.80;;
12603;SDS011;6367;52.508;13.284;2022-08-03T09:49:36;2.30;;;2.10;;
12603;SDS011;6367;52.508;13.284;2022-08-03T09:52:16;1.80;;;1.70;;
12603;SDS011;6367;52.508;13.284;2022-08-03T09:54:43;2.10;;;2.00;;
12603;SDS011;6367;52.508;13.284;2022-08-03T09:57:24;1.83;;;1.70;;
12603;SDS011;6367;52.508;13.284;2022-08-03T09:59:51;1.80;;;1.70;;
12603;SDS011;6367;52.508;13.284;2022-08-03T10:02:25;1.73;;;1.63;;
12603;SDS011;6367;52.508;13.284;2022-08-03T10:04:51;4.13;;;1.90;;
12603;SDS011;6367;52.508;13.284;2022-08-03T10:07:21;2.43;;;2.23;;
12603;SDS011;6367;52.508;13.284;2022-08-03T10:09:52;2.00;;;1.90;;
12603;SDS011;6367;52.508;13.284;2022-08-03T10:12:19;4.00;;;1.97;;
12603;SDS011;6367;52.508;13.284;2022-08-03T10:14:46;1.77;;;1.67;;
12603;SDS011;6367;52.508;13.284;2022-08-03T10:17:12;3.30;;;2.00;;
12603;SDS011;6367;52.508;13.284;2022-08-03T10:19:38;2.80;;;1.90;;
12603;SDS011;6367;52.508;13.284;2022-08-03T10:22:12;3.40;;;1.73;;
12603;SDS011;6367;52.508;13.284;2022-08-03T10:24:43;2.17;;;1.97;;
12603;SDS011;6367;52.508;13.284;2022-08-03T10:27:14;1.70;;;1.60;;
12603;SDS011;6367;52.508;13.284;2022-08-03T10:29:42;2.23;;;1.90;;
12603;SDS011;6367;52.508;13.284;2022-08-03T10:32:30;2.93;;;2.20;;
12603;SDS011;6367;52.508;13.284;2022-08-03T10:35:03;2.00;;;1.90;;
12603;SDS011;6367;52.508;13.284;2022-08-03T10:37:31;2.17;;;1.97;;
12603;SDS011;6367;52.508;13.284;2022-08-03T10:40:00;3.63;;;1.80;;
12603;SDS011;6367;52.508;13.284;2022-08-03T10:42:27;1.80;;;1.70;;
12603;SDS011;6367;52.508;13.284;2022-08-03T10:45:05;2.20;;;2.00;;
12603;SDS011;6367;52.508;13.284;2022-08-03T10:47:35;1.97;;;1.60;;
12603;SDS011;6367;52.508;13.284;2022-08-03T10:50:01;1.60;;;1.50;;
12603;SDS011;6367;52.508;13.284;2022-08-03T10:52:28;2.00;;;1.90;;
12603;SDS011;6367;52.508;13.284;2022-08-03T10:54:53;3.70;;;1.73;;
12603;SDS011;6367;52.508;13.284;2022-08-03T10:57:49;2.00;;;1.90;;
12603;SDS011;6367;52.508;13.284;2022-08-03T11:00:19;2.37;;;1.60;;
12603;SDS011;6367;52.508;13.284;2022-08-03T11:03:05;3.20;;;1.80;;
12603;SDS011;6367;52.508;13.284;2022-08-03T11:05:41;1.80;;;1.70;;
12603;SDS011;6367;52.508;13.284;2022-08-03T11:11:00;1.70;;;1.60;;
12603;SDS011;6367;52.508;13.284;2022-08-03T11:14:03;1.87;;;1.63;;
12603;SDS011;6367;52.508;13.284;2022-08-03T11:16:33;1.90;;;1.80;;
12603;SDS011;6367;52.508;13.284;2022-08-03T11:19:01;2.20;;;2.10;;
12603;SDS011;6367;52.508;13.284;2022-08-03T11:27:22;2.57;;;2.37;;
12603;SDS011;6367;52.508;13.284;2022-08-03T11:38:00;1.60;;;1.50;;
12603;SDS011;6367;52.508;13.284;2022-08-03T11:40:44;1.77;;;1.67;;
12603;SDS011;6367;52.508;13.284;2022-08-03T11:46:05;2.40;;;2.20;;
12603;SDS011;6367;52.508;13.284;2022-08-03T11:48:42;1.70;;;1.60;;
12603;SDS011;6367;52.508;13.284;2022-08-03T11:51:24;2.20;;;2.00;;
12603;SDS011;6367;52.508;13.284;2022-08-03T11:53:55;4.33;;;2.20;;
12603;SDS011;6367;52.508;13.284;2022-08-03T11:56:23;3.40;;;1.63;;
12603;SDS011;6367;52.508;13.284;2022-08-03T11:58:49;2.13;;;1.97;;
12603;SDS011;6367;52.508;13.284;2022-08-03T12:01:17;2.23;;;1.83;;
12603;SDS011;6367;52.508;13.284;2022-08-03T12:03:44;2.30;;;2.10;;
12603;SDS011;6367;52.508;13.284;2022-08-03T12:06:10;2.00;;;1.90;;
12603;SDS011;6367;52.508;13.284;2022-08-03T12:08:39;2.80;;;2.10;;
12603;SDS011;6367;52.508;13.284;2022-08-03T12:11:06;3.70;;;2.50;;
12603;SDS011;6367;52.508;13.284;2022-08-03T12:13:52;2.83;;;2.17;;
12603;SDS011;6367;52.508;13.284;2022-08-03T12:16:18;2.43;;;2.00;;
12603;SDS011;6367;52.508;13.284;2022-08-03T12:19:00;1.90;;;1.73;;
12603;SDS011;6367;52.508;13.284;2022-08-03T12:21:27;2.20;;;2.00;;
12603;SDS011;6367;52.508;13.284;2022-08-03T12:23:56;2.77;;;1.97;;
12603;SDS011;6367;52.508;13.284;2022-08-03T12:26:24;2.47;;;2.27;;
12603;SDS011;6367;52.508;13.284;2022-08-03T12:28:50;4.70;;;1.93;;
12603;SDS011;6367;52.508;13.284;2022-08-03T12:31:16;2.00;;;1.90;;
12603;SDS011;6367;52.508;13.284;2022-08-03T12:34:01;1.60;;;1.50;;
12603;SDS011;6367;52.508;13.284;2022-08-03T12:36:30;2.13;;;2.03;;
12603;SDS011;6367;52.508;13.284;2022-08-03T12:38:58;2.50;;;2.30;;
12603;SDS011;6367;52.508;13.284;2022-08-03T12:41:36;2.00;;;1.90;;
12603;SDS011;6367;52.508;13.284;2022-08-03T12:44:07;2.70;;;1.87;;
12603;SDS011;6367;52.508;13.284;2022-08-03T12:46:37;4.23;;;1.80;;
12603;SDS011;6367;52.508;13.284;2022-08-03T12:49:08;2.50;;;2.30;;
12603;SDS011;6367;52.508;13.284;2022-08-03T12:54:08;2.03;;;1.80;;
12603;SDS011;6367;52.508;13.284;2022-08-03T12:59:27;2.07;;;1.97;;
12603;SDS011;6367;52.508;13.284;2022-08-03T13:01:54;2.10;;;2.00;;
12603;SDS011;6367;52.508;13.284;2022-08-03T13:04:31;2.37;;;2.27;;
12603;SDS011;6367;52.508;13.284;2022-08-03T13:06:59;2.10;;;2.00;;
12603;SDS011;6367;52.508;13.284;2022-08-03T13:09:26;1.93;;;1.83;;
12603;SDS011;6367;52.508;13.284;2022-08-03T13:12:06;2.20;;;2.10;;
12603;SDS011;6367;52.508;13.284;2022-08-03T13:14:33;1.97;;;1.87;;
12603;SDS011;6367;52.508;13.284;2022-08-03T13:16:59;1.93;;;1.80;;
12603;SDS011;6367;52.508;13.284;2022-08-03T13:19:24;1.77;;;1.67;;
12603;SDS011;6367;52.508;13.284;2022-08-03T13:21:50;2.27;;;2.00;;
12603;SDS011;6367;52.508;13.284;2022-08-03T13:24:15;2.90;;;2.70;;
12603;SDS011;6367;52.508;13.284;2022-08-03T13:26:41;3.60;;;1.97;;
12603;SDS011;6367;52.508;13.284;2022-08-03T13:29:07;4.10;;;1.90;;
12603;SDS011;6367;52.508;13.284;2022-08-03T13:31:32;2.17;;;2.00;;
12603;SDS011;6367;52.508;13.284;2022-08-03T13:33:58;2.90;;;1.83;;
12603;SDS011;6367;52.508;13.284;2022-08-03T13:36:23;1.93;;;1.83;;
12603;SDS011;6367;52.508;13.284;2022-08-03T13:38:49;1.83;;;1.73;;
12603;SDS011;6367;52.508;13.284;2022-08-03T13:41:15;2.33;;;2.10;;
12603;SDS011;6367;52.508;13.284;2022-08-03T13:43:40;1.90;;;1.80;;
12603;SDS011;6367;52.508;13.284;2022-08-03T13:46:06;1.90;;;1.80;;
12603;SDS011;6367;52.508;13.284;2022-08-03T13:48:32;1.70;;;1.60;;
12603;SDS011;6367;52.508;13.284;2022-08-03T13:50:57;2.27;;;2.17;;
12603;SDS011;6367;52.508;13.284;2022-08-03T13:53:23;3.23;;;1.77;;
12603;SDS011;6367;52.508;13.284;2022-08-03T13:55:49;2.00;;;1.90;;
12603;SDS011;6367;52.508;13.284;2022-08-03T13:58:14;2.70;;;2.50;;
12603;SDS011;6367;52.508;13.284;2022-08-03T14:00:40;2.70;;;2.20;;
12603;SDS011;6367;52.508;13.284;2022-08-03T14:03:05;2.23;;;2.13;;
12603;SDS011;6367;52.508;13.284;2022-08-03T14:05:31;1.83;;;1.70;;
12603;SDS011;6367;52.508;13.284;2022-08-03T14:07:58;2.47;;;2.27;;
12603;SDS011;6367;52.508;13.284;2022-08-03T14:10:25;2.53;;;2.33;;
12603;SDS011;6367;52.508;13.284;2022-08-03T14:12:51;1.90;;;1.80;;
12603;SDS011;6367;52.508;13.284;2022-08-03T14:15:17;4.30;;;2.13;;
12603;SDS011;6367;52.508;13.284;2022-08-03T14:17:42;2.37;;;2.27;;
12603;SDS011;6367;52.508;13.284;2022-08-03T14:20:08;6.70;;;2.40;;
12603;SDS011;6367;52.508;13.284;2022-08-03T14:22:36;2.20;;;2.10;;
12603;SDS011;6367;52.508;13.284;2022-08-03T14:25:02;2.30;;;2.10;;
12603;SDS011;6367;52.508;13.284;2022-08-03T14:27:28;2.40;;;2.20;;
12603;SDS011;6367;52.508;13.284;2022-08-03T14:29:54;3.37;;;2.23;;
12603;SDS011;6367;52.508;13.284;2022-08-03T14:32:23;2.13;;;1.90;;
12603;SDS011;6367;52.508;13.284;2022-08-03T14:34:51;2.90;;;2.50;;
12603;SDS011;6367;52.508;13.284;2022-08-03T14:37:16;2.60;;;2.50;;
12603;SDS011;6367;52.508;13.284;2022-08-03T14:39:42;2.40;;;2.30;;
12603;SDS011;6367;52.508;13.284;2022-08-03T14:42:08;2.53;;;2.33;;
12603;SDS011;6367;52.508;13.284;2022-08-03T14:44:33;2.30;;;2.20;;
12603;SDS011;6367;52.508;13.284;2022-08-03T14:46:59;1.97;;;1.87;;
12603;SDS011;6367;52.508;13.284;2022-08-03T14:49:25;2.23;;;2.13;;
12603;SDS011;6367;52.508;13.284;2022-08-03T14:51:51;2.00;;;1.90;;
12603;SDS011;6367;52.508;13.284;2022-08-03T14:54:17;2.77;;;2.60;;
12603;SDS011;6367;52.508;13.284;2022-08-03T14:56:42;2.43;;;2.30;;
12603;SDS011;6367;52.508;13.284;2022-08-03T14:59:08;2.27;;;2.07;;
12603;SDS011;6367;52.508;13.284;2022-08-03T15:01:34;1.80;;;1.70;;
12603;SDS011;6367;52.508;13.284;2022-08-03T15:03:59;2.20;;;2.00;;
12603;SDS011;6367;52.508;13.284;2022-08-03T15:06:25;2.33;;;2.13;;
12603;SDS011;6367;52.508;13.284;2022-08-03T15:08:50;2.23;;;2.13;;
12603;SDS011;6367;52.508;13.284;2022-08-03T15:11:16;2.60;;;2.40;;
12603;SDS011;6367;52.508;13.284;2022-08-03T15:13:41;2.07;;;1.97;;
12603;SDS011;6367;52.508;13.284;2022-08-03T15:16:07;1.70;;;1.60;;
12603;SDS011;6367;52.508;13.284;2022-08-03T15:18:33;2.27;;;2.10;;
12603;SDS011;6367;52.508;13.284;2022-08-03T15:20:59;2.43;;;2.17;;
12603;SDS011;6367;52.508;13.284;2022-08-03T15:23:24;2.43;;;2.33;;
12603;SDS011;6367;52.508;13.284;2022-08-03T15:25:50;2.10;;;2.00;;
12603;SDS011;6367;52.508;13.284;2022-08-03T15:28:16;2.23;;;2.13;;